Time;durP1;ratioP1;P1;durP2;ratioP2;P2;SDS_P1;SDS_P2;PMS_P1;PMS_P2;Temp;Humidity;BMP_temperature;BMP_pressure;BME280_temperature;BME280_humidity;BME280_pressure;Samples;Min_cycle;Max_cycle;Signal;HPM_P1;HPM_P2
2023/09/29 00:01:51;;;;;;;17.27;4.00;;;;;;;;;;4992426;28;20725;-81
2023/09/29 00:04:19;;;;;;;13.77;4.32;;;;;;;;;;4991866;28;20228;-82
2023/09/29 00:06:47;;;;;;;18.25;4.57;;;;;;;;;;4991901;28;20688;-82
2023/09/29 00:09:16;;;;;;;14.50;4.20;;;;;;;;;;4992143;28;20198;-81
2023/09/29 00:11:43;;;;;;;25.58;4.97;;;;;;;;;;4992048;28;20197;-81
2023/09/29 00:14:10;;;;;;;16.67;4.90;;;;;;;;;;4991691;28;20225;-82
2023/09/29 00:16:37;;;;;;;19.05;4.90;;;;;;;;;;4992358;28;20225;-82
2023/09/29 00:19:04;;;;;;;20.40;5.38;;;;;;;;;;4991925;28;20206;-82
2023/09/29 00:21:33;;;;;;;24.38;5.85;;;;;;;;;;4991676;28;20193;-83
2023/09/29 00:24:00;;;;;;;20.77;5.53;;;;;;;;;;4991729;28;20237;-83
2023/09/29 00:26:27;;;;;;;21.75;5.38;;;;;;;;;;4992033;28;20280;-82
2023/09/29 00:28:55;;;;;;;22.30;6.15;;;;;;;;;;4991629;28;20676;-82
2023/09/29 00:31:23;;;;;;;20.48;5.80;;;;;;;;;;4992570;28;20197;-82
2023/09/29 00:33:50;;;;;;;21.30;5.47;;;;;;;;;;4991822;28;20283;-82
2023/09/29 00:36:18;;;;;;;21.25;6.30;;;;;;;;;;4991728;28;20217;-82
2023/09/29 00:38:47;;;;;;;23.30;6.90;;;;;;;;;;4991519;28;20751;-83
2023/09/29 00:41:14;;;;;;;26.05;6.57;;;;;;;;;;4991483;28;20197;-82
2023/09/29 00:43:41;;;;;;;23.67;6.53;;;;;;;;;;4991575;28;20297;-83
2023/09/29 00:46:09;;;;;;;25.17;7.07;;;;;;;;;;4992257;28;20653;-82
2023/09/29 00:48:38;;;;;;;27.38;7.43;;;;;;;;;;4992132;28;20244;-82
2023/09/29 00:51:06;;;;;;;24.42;6.68;;;;;;;;;;4991730;28;20228;-81
2023/09/29 00:53:34;;;;;;;33.47;7.55;;;;;;;;;;4991563;28;20229;-81
2023/09/29 00:56:03;;;;;;;27.08;8.40;;;;;;;;;;4991052;28;20205;-81
2023/09/29 00:58:30;;;;;;;27.10;7.05;;;;;;;;;;4992131;28;20229;-81
2023/09/29 01:00:58;;;;;;;35.40;7.95;;;;;;;;;;4991286;28;20202;-80
2023/09/29 01:03:25;;;;;;;30.77;7.55;;;;;;;;;;4991188;28;20205;-81
2023/09/29 01:05:52;;;;;;;30.73;7.78;;;;;;;;;;4991945;28;20252;-80
2023/09/29 01:08:21;;;;;;;33.03;8.27;;;;;;;;;;4991706;28;20202;-81
2023/09/29 01:10:49;;;;;;;30.70;7.63;;;;;;;;;;4990857;28;20634;-81
2023/09/29 01:13:18;;;;;;;30.75;7.78;;;;;;;;;;4991490;28;20233;-80
2023/09/29 01:15:46;;;;;;;30.83;7.63;;;;;;;;;;4991653;28;20586;-81
2023/09/29 01:18:16;;;;;;;28.13;7.22;;;;;;;;;;4994940;28;20223;-80
2023/09/29 01:20:43;;;;;;;28.95;7.35;;;;;;;;;;4995126;28;20572;-81
2023/09/29 01:23:11;;;;;;;30.00;7.85;;;;;;;;;;4994400;28;20234;-81
2023/09/29 01:25:40;;;;;;;29.10;7.78;;;;;;;;;;4994726;28;20292;-81
2023/09/29 01:28:08;;;;;;;28.77;7.22;;;;;;;;;;4994644;28;20201;-81
2023/09/29 01:30:36;;;;;;;31.27;7.13;;;;;;;;;;4994811;28;20301;-80
2023/09/29 01:33:04;;;;;;;28.02;7.10;;;;;;;;;;4995151;28;20595;-80
2023/09/29 01:35:31;;;;;;;23.73;6.57;;;;;;;;;;4994348;28;20198;-81
2023/09/29 01:38:00;;;;;;;29.02;7.18;;;;;;;;;;4994810;28;20679;-81
2023/09/29 01:40:27;;;;;;;25.23;6.22;;;;;;;;;;4994471;28;20194;-81
2023/09/29 01:42:56;;;;;;;22.08;6.00;;;;;;;;;;4994870;28;20206;-81
2023/09/29 01:45:24;;;;;;;29.27;5.85;;;;;;;;;;4994825;28;20205;-81
2023/09/29 01:47:51;;;;;;;28.80;5.43;;;;;;;;;;4994422;28;20253;-81
2023/09/29 01:50:19;;;;;;;25.52;5.47;;;;;;;;;;4994360;28;20292;-81
2023/09/29 01:52:47;;;;;;;23.27;5.50;;;;;;;;;;4994325;28;20222;-81
2023/09/29 01:55:19;;;;;;;21.38;4.88;;;;;;;;;;4994159;28;20206;-81
2023/09/29 01:57:48;;;;;;;23.58;4.80;;;;;;;;;;4994568;28;20202;-81
2023/09/29 02:00:19;;;;;;;22.48;4.93;;;;;;;;;;4994229;28;20204;-81
2023/09/29 02:02:47;;;;;;;22.30;4.47;;;;;;;;;;4994137;28;20344;-79
2023/09/29 02:05:16;;;;;;;18.20;4.40;;;;;;;;;;4994240;28;20280;-80
2023/09/29 02:07:42;;;;;;;17.98;4.05;;;;;;;;;;4994289;28;20566;-81
2023/09/29 02:10:10;;;;;;;15.75;3.85;;;;;;;;;;4993991;28;20252;-81
2023/09/29 02:12:46;;;;;;;21.25;4.90;;;;;;;;;;4993947;28;20774;-81
2023/09/29 02:15:13;;;;;;;15.68;4.28;;;;;;;;;;4994167;28;20288;-81
2023/09/29 02:17:42;;;;;;;17.02;4.97;;;;;;;;;;4994099;28;20229;-81
2023/09/29 02:20:12;;;;;;;13.43;4.28;;;;;;;;;;4993888;28;20225;-81
2023/09/29 02:22:39;;;;;;;15.48;4.07;;;;;;;;;;4993255;28;20225;-81
2023/09/29 02:25:07;;;;;;;14.18;3.88;;;;;;;;;;4994269;28;20288;-81
2023/09/29 02:27:36;;;;;;;12.35;3.05;;;;;;;;;;4993286;28;20664;-81
2023/09/29 02:30:04;;;;;;;11.15;2.40;;;;;;;;;;4993971;28;20198;-80
2023/09/29 02:32:31;;;;;;;6.63;1.92;;;;;;;;;;4993501;28;20754;-81
2023/09/29 02:34:59;;;;;;;11.02;2.30;;;;;;;;;;4993666;28;20232;-82
2023/09/29 02:37:27;;;;;;;9.80;1.90;;;;;;;;;;4993061;28;20879;-82
2023/09/29 02:39:55;;;;;;;9.35;1.92;;;;;;;;;;4994148;28;20234;-82
2023/09/29 02:42:22;;;;;;;7.55;1.77;;;;;;;;;;4993784;28;20198;-83
2023/09/29 02:44:49;;;;;;;12.85;2.00;;;;;;;;;;4993397;28;20213;-83
2023/09/29 02:47:16;;;;;;;12.13;2.67;;;;;;;;;;4989631;28;20229;-82
2023/09/29 02:49:44;;;;;;;8.52;1.90;;;;;;;;;;4982336;28;20238;-81
2023/09/29 02:52:12;;;;;;;7.72;1.80;;;;;;;;;;4973338;28;20285;-82
2023/09/29 02:54:40;;;;;;;7.53;2.50;;;;;;;;;;4974339;28;20230;-83
2023/09/29 02:57:07;;;;;;;12.40;2.58;;;;;;;;;;4973748;28;20195;-82
2023/09/29 02:59:34;;;;;;;8.50;1.98;;;;;;;;;;4974253;28;20210;-82
2023/09/29 03:02:03;;;;;;;10.25;2.00;;;;;;;;;;4974235;28;20295;-82
2023/09/29 03:04:30;;;;;;;8.95;2.20;;;;;;;;;;4973505;28;20206;-83
2023/09/29 03:06:58;;;;;;;9.00;2.13;;;;;;;;;;4973689;28;20195;-82
2023/09/29 03:09:30;;;;;;;11.43;2.33;;;;;;;;;;4973631;28;20202;-85
2023/09/29 03:11:59;;;;;;;9.65;2.20;;;;;;;;;;4973557;28;20261;-81
2023/09/29 03:14:26;;;;;;;8.38;2.03;;;;;;;;;;4973307;28;20242;-81
2023/09/29 03:16:54;;;;;;;10.38;2.20;;;;;;;;;;4973537;28;20229;-80
2023/09/29 03:19:22;;;;;;;7.05;1.92;;;;;;;;;;4990477;28;20206;-81
2023/09/29 03:21:49;;;;;;;10.60;2.08;;;;;;;;;;4992503;28;20202;-81
2023/09/29 03:24:16;;;;;;;7.45;2.10;;;;;;;;;;4992368;28;20237;-81
2023/09/29 03:26:49;;;;;;;8.05;2.50;;;;;;;;;;4992964;28;20289;-81
2023/09/29 03:29:17;;;;;;;10.73;2.33;;;;;;;;;;4992707;28;20198;-81
2023/09/29 03:31:45;;;;;;;7.30;1.85;;;;;;;;;;4992547;28;20213;-81
2023/09/29 03:34:12;;;;;;;8.15;2.15;;;;;;;;;;4992344;28;20225;-81
2023/09/29 03:36:39;;;;;;;10.20;2.13;;;;;;;;;;4992076;28;20248;-81
2023/09/29 03:39:07;;;;;;;5.40;1.88;;;;;;;;;;4992063;28;20197;-81
2023/09/29 03:41:34;;;;;;;5.85;1.70;;;;;;;;;;4992786;28;20688;-81
2023/09/29 03:44:03;;;;;;;7.40;1.73;;;;;;;;;;4992266;28;20194;-81
2023/09/29 03:46:30;;;;;;;7.70;1.85;;;;;;;;;;4992383;28;20677;-81
2023/09/29 03:48:57;;;;;;;6.55;1.75;;;;;;;;;;4992117;28;20285;-81
2023/09/29 03:51:25;;;;;;;6.25;2.00;;;;;;;;;;4991741;28;20201;-80
2023/09/29 03:53:52;;;;;;;6.38;1.60;;;;;;;;;;4991978;28;20712;-82
2023/09/29 03:56:22;;;;;;;9.52;1.92;;;;;;;;;;4992260;28;20252;-81
2023/09/29 03:58:50;;;;;;;8.82;2.08;;;;;;;;;;4992568;28;20202;-81
2023/09/29 04:01:19;;;;;;;7.30;1.60;;;;;;;;;;4992407;28;20198;-82
2023/09/29 04:03:46;;;;;;;7.15;1.80;;;;;;;;;;4992055;28;20255;-81
2023/09/29 04:06:15;;;;;;;6.70;1.25;;;;;;;;;;4991773;28;20229;-81
2023/09/29 04:08:42;;;;;;;8.23;1.80;;;;;;;;;;4992071;28;20208;-81
2023/09/29 04:11:10;;;;;;;5.43;1.67;;;;;;;;;;4992178;28;20284;-81
2023/09/29 04:13:37;;;;;;;8.80;2.10;;;;;;;;;;4992165;28;20229;-82
2023/09/29 04:16:05;;;;;;;6.25;1.17;;;;;;;;;;4984429;28;20230;-81
2023/09/29 04:18:35;;;;;;;6.05;1.45;;;;;;;;;;4975097;28;20210;-81
2023/09/29 04:21:02;;;;;;;3.08;1.20;;;;;;;;;;4972922;28;20202;-81
2023/09/29 04:23:29;;;;;;;3.92;1.55;;;;;;;;;;4973512;28;20258;-82
2023/09/29 04:25:57;;;;;;;4.38;1.65;;;;;;;;;;4992076;28;20280;-80
2023/09/29 04:28:24;;;;;;;3.95;1.55;;;;;;;;;;4992340;28;20263;-81
2023/09/29 04:30:51;;;;;;;4.22;1.30;;;;;;;;;;4991848;28;20198;-80
2023/09/29 04:33:19;;;;;;;3.15;1.20;;;;;;;;;;4991548;28;20265;-80
2023/09/29 04:35:48;;;;;;;3.25;1.20;;;;;;;;;;4991863;28;20197;-80
2023/09/29 04:38:15;;;;;;;4.78;1.45;;;;;;;;;;4991862;28;20269;-80
2023/09/29 04:40:42;;;;;;;3.47;1.55;;;;;;;;;;4992126;28;20206;-80
2023/09/29 04:43:10;;;;;;;4.05;1.27;;;;;;;;;;4991845;28;20233;-81
2023/09/29 04:45:37;;;;;;;2.60;1.38;;;;;;;;;;4991506;28;20198;-80
2023/09/29 04:48:05;;;;;;;4.63;1.40;;;;;;;;;;4991404;28;20200;-80
2023/09/29 04:50:34;;;;;;;4.15;1.08;;;;;;;;;;4993549;28;20309;-81
2023/09/29 04:53:02;;;;;;;2.95;1.23;;;;;;;;;;4995532;28;20205;-80
2023/09/29 04:55:29;;;;;;;2.88;1.05;;;;;;;;;;4995225;28;20202;-80
2023/09/29 04:57:57;;;;;;;2.58;1.08;;;;;;;;;;4995416;28;20230;-80
2023/09/29 05:00:24;;;;;;;2.95;1.15;;;;;;;;;;4994951;28;20237;-81
2023/09/29 05:02:51;;;;;;;3.53;1.00;;;;;;;;;;4994618;28;20292;-80
2023/09/29 05:05:18;;;;;;;5.05;1.23;;;;;;;;;;4995492;28;20229;-80
2023/09/29 05:07:45;;;;;;;4.25;0.77;;;;;;;;;;4994847;28;20229;-81
2023/09/29 05:10:14;;;;;;;3.05;0.93;;;;;;;;;;4995049;28;20198;-81
2023/09/29 05:12:43;;;;;;;2.95;0.80;;;;;;;;;;4995276;28;20285;-81
2023/09/29 05:15:11;;;;;;;2.55;1.00;;;;;;;;;;4994988;28;20660;-80
2023/09/29 05:17:38;;;;;;;3.45;0.82;;;;;;;;;;4994844;28;20208;-80
2023/09/29 05:20:06;;;;;;;4.15;1.00;;;;;;;;;;4994822;28;20230;-81
2023/09/29 05:22:34;;;;;;;2.92;0.90;;;;;;;;;;4994566;28;20230;-83
2023/09/29 05:25:02;;;;;;;2.20;0.65;;;;;;;;;;4994921;28;20202;-82
2023/09/29 05:27:32;;;;;;;3.38;0.50;;;;;;;;;;4995586;28;20292;-81
2023/09/29 05:29:59;;;;;;;2.28;0.50;;;;;;;;;;4995175;28;20202;-84
2023/09/29 05:32:26;;;;;;;1.77;0.60;;;;;;;;;;4994417;28;20728;-83
2023/09/29 05:34:53;;;;;;;1.95;0.70;;;;;;;;;;4994905;28;20311;-84
2023/09/29 05:37:21;;;;;;;1.77;0.60;;;;;;;;;;4995135;28;20233;-85
2023/09/29 05:39:49;;;;;;;2.13;0.77;;;;;;;;;;4990217;28;20212;-84
2023/09/29 05:42:20;;;;;;;5.03;0.75;;;;;;;;;;4983356;28;20210;-85
2023/09/29 05:44:49;;;;;;;4.03;1.05;;;;;;;;;;4992115;28;20295;-84
2023/09/29 05:47:17;;;;;;;3.65;1.02;;;;;;;;;;4994321;28;20264;-83
2023/09/29 05:49:45;;;;;;;2.55;0.93;;;;;;;;;;4994271;28;20213;-83
2023/09/29 05:52:12;;;;;;;3.30;0.90;;;;;;;;;;4994696;28;20197;-83
2023/09/29 05:54:39;;;;;;;2.10;0.90;;;;;;;;;;4994380;28;20313;-83
2023/09/29 05:57:07;;;;;;;2.70;0.90;;;;;;;;;;4994089;28;20202;-83
2023/09/29 05:59:34;;;;;;;5.13;0.90;;;;;;;;;;4993797;28;20772;-83
2023/09/29 06:02:03;;;;;;;1.98;0.80;;;;;;;;;;4993414;28;20226;-83
2023/09/29 06:04:30;;;;;;;2.63;0.95;;;;;;;;;;4985356;28;20260;-83
2023/09/29 06:06:57;;;;;;;2.47;0.98;;;;;;;;;;4976844;28;20229;-84
2023/09/29 06:09:26;;;;;;;2.35;0.77;;;;;;;;;;4975212;28;20221;-84
2023/09/29 06:11:53;;;;;;;2.65;0.98;;;;;;;;;;4975308;28;20195;-84
2023/09/29 06:14:20;;;;;;;3.25;0.65;;;;;;;;;;4980423;28;20321;-83
2023/09/29 06:16:47;;;;;;;3.05;0.70;;;;;;;;;;4970136;28;20226;-84
2023/09/29 06:19:16;;;;;;;3.92;1.15;;;;;;;;;;4981362;28;20209;-84
2023/09/29 06:21:44;;;;;;;3.70;1.10;;;;;;;;;;4974363;28;20209;-84
2023/09/29 06:24:11;;;;;;;2.17;0.60;;;;;;;;;;4956957;28;20274;-84
2023/09/29 06:26:38;;;;;;;3.55;1.00;;;;;;;;;;4951584;28;20666;-81
2023/09/29 06:29:06;;;;;;;3.50;1.17;;;;;;;;;;4963801;28;20242;-82
2023/09/29 06:31:33;;;;;;;3.63;1.00;;;;;;;;;;4973964;28;20199;-82
2023/09/29 06:34:00;;;;;;;3.80;1.25;;;;;;;;;;4971924;28;20253;-83
2023/09/29 06:36:29;;;;;;;2.78;0.85;;;;;;;;;;4965095;28;20226;-82
2023/09/29 06:38:56;;;;;;;2.72;0.95;;;;;;;;;;4957704;28;20299;-81
2023/09/29 06:41:23;;;;;;;3.33;0.98;;;;;;;;;;4959236;28;20194;-82
2023/09/29 06:43:53;;;;;;;3.92;1.00;;;;;;;;;;4962304;28;20306;-82
2023/09/29 06:46:20;;;;;;;2.90;1.00;;;;;;;;;;4954065;29;20207;-82
2023/09/29 06:48:47;;;;;;;2.83;1.00;;;;;;;;;;4964270;28;20199;-82
2023/09/29 06:51:14;;;;;;;3.13;1.05;;;;;;;;;;4973357;28;20228;-82
2023/09/29 06:53:43;;;;;;;3.05;1.10;;;;;;;;;;4972935;28;20734;-82
2023/09/29 06:56:10;;;;;;;6.43;1.33;;;;;;;;;;4972981;28;20297;-82
2023/09/29 06:58:38;;;;;;;3.67;1.60;;;;;;;;;;4972701;28;20700;-82
2023/09/29 07:01:05;;;;;;;4.82;1.27;;;;;;;;;;4972448;28;20534;-82
2023/09/29 07:03:33;;;;;;;3.97;1.25;;;;;;;;;;4973060;28;20304;-82
2023/09/29 07:06:01;;;;;;;3.03;1.10;;;;;;;;;;4973091;28;20203;-83
2023/09/29 07:08:28;;;;;;;4.53;1.50;;;;;;;;;;4973016;28;20237;-82
2023/09/29 07:10:57;;;;;;;8.95;1.95;;;;;;;;;;4972893;28;20194;-83
2023/09/29 07:13:24;;;;;;;6.72;2.10;;;;;;;;;;4971367;28;20289;-82
2023/09/29 07:15:51;;;;;;;7.35;2.53;;;;;;;;;;4972938;28;20246;-82
2023/09/29 07:18:19;;;;;;;4.25;1.98;;;;;;;;;;4972668;28;20252;-83
2023/09/29 07:20:50;;;;;;;6.07;1.75;;;;;;;;;;4972441;28;20249;-82
2023/09/29 07:23:17;;;;;;;5.10;1.55;;;;;;;;;;4982974;28;20356;-83
2023/09/29 07:25:44;;;;;;;6.07;1.40;;;;;;;;;;4992077;28;20288;-82
2023/09/29 07:28:16;;;;;;;6.38;1.80;;;;;;;;;;4991382;28;20297;-82
2023/09/29 07:30:44;;;;;;;4.43;1.63;;;;;;;;;;4991913;28;20631;-82
2023/09/29 07:33:11;;;;;;;4.22;1.50;;;;;;;;;;4991800;28;20293;-82
2023/09/29 07:35:38;;;;;;;5.30;1.80;;;;;;;;;;4991706;28;20743;-82
2023/09/29 07:38:06;;;;;;;4.13;1.65;;;;;;;;;;4991730;28;20202;-84
2023/09/29 07:40:33;;;;;;;3.78;1.60;;;;;;;;;;4992275;28;20576;-84
2023/09/29 07:43:00;;;;;;;7.35;2.17;;;;;;;;;;4991650;28;20210;-83
2023/09/29 07:45:29;;;;;;;5.43;1.58;;;;;;;;;;4991998;28;20236;-84
2023/09/29 07:47:56;;;;;;;6.40;2.25;;;;;;;;;;4992047;28;20233;-83
2023/09/29 07:50:24;;;;;;;6.82;1.73;;;;;;;;;;4991939;28;20206;-82
2023/09/29 07:52:51;;;;;;;4.82;1.50;;;;;;;;;;4991617;28;20225;-82
2023/09/29 07:55:18;;;;;;;5.60;1.90;;;;;;;;;;4991680;28;20257;-81
2023/09/29 07:57:45;;;;;;;5.13;1.85;;;;;;;;;;4991296;28;20209;-81
2023/09/29 08:00:15;;;;;;;6.50;2.13;;;;;;;;;;4991727;28;20198;-82
2023/09/29 08:02:44;;;;;;;3.75;2.00;;;;;;;;;;4991666;28;20664;-82
2023/09/29 08:05:12;;;;;;;5.72;2.13;;;;;;;;;;4991547;28;20606;-82
2023/09/29 08:07:39;;;;;;;5.30;2.35;;;;;;;;;;4991486;28;20197;-82
2023/09/29 08:10:07;;;;;;;3.92;1.75;;;;;;;;;;4991468;28;20232;-82
2023/09/29 08:12:34;;;;;;;5.88;2.03;;;;;;;;;;4991634;28;20221;-82
2023/09/29 08:15:04;;;;;;;5.15;1.48;;;;;;;;;;4991435;28;20233;-82
2023/09/29 08:17:32;;;;;;;6.13;1.55;;;;;;;;;;4991413;28;20209;-82
2023/09/29 08:20:00;;;;;;;3.63;1.40;;;;;;;;;;4988731;28;20233;-82
2023/09/29 08:22:28;;;;;;;7.40;2.20;;;;;;;;;;4989719;28;20316;-82
2023/09/29 08:24:55;;;;;;;8.40;3.13;;;;;;;;;;4972644;28;20238;-82
2023/09/29 08:27:22;;;;;;;8.20;3.40;;;;;;;;;;4975604;28;20222;-82
2023/09/29 08:29:49;;;;;;;10.00;3.55;;;;;;;;;;4976126;28;20222;-81
2023/09/29 08:32:17;;;;;;;8.98;2.83;;;;;;;;;;4975912;28;20286;-82
2023/09/29 08:34:44;;;;;;;8.88;3.05;;;;;;;;;;4976486;28;20304;-81
2023/09/29 08:37:13;;;;;;;6.55;2.67;;;;;;;;;;4976264;28;20298;-82
2023/09/29 08:39:40;;;;;;;5.47;2.33;;;;;;;;;;4975759;28;20253;-82
2023/09/29 08:42:14;;;;;;;6.05;2.72;;;;;;;;;;4976008;28;20674;-82
2023/09/29 08:44:44;;;;;;;4.05;1.58;;;;;;;;;;4976111;28;20218;-82
2023/09/29 08:47:13;;;;;;;4.30;1.80;;;;;;;;;;4976192;28;20200;-82
2023/09/29 08:49:41;;;;;;;4.72;1.65;;;;;;;;;;4989362;28;20296;-82
2023/09/29 08:52:09;;;;;;;6.47;1.90;;;;;;;;;;4995365;28;20285;-82
2023/09/29 08:54:39;;;;;;;5.85;1.70;;;;;;;;;;4994763;28;20316;-83
2023/09/29 08:57:07;;;;;;;4.32;1.85;;;;;;;;;;4994880;28;20197;-82
2023/09/29 08:59:35;;;;;;;6.28;2.42;;;;;;;;;;4984753;28;20230;-83
2023/09/29 09:02:02;;;;;;;2.22;1.20;;;;;;;;;;4975525;28;20670;-82
2023/09/29 09:04:30;;;;;;;3.83;1.40;;;;;;;;;;4975531;28;20198;-82
2023/09/29 09:06:57;;;;;;;5.00;2.35;;;;;;;;;;4978343;28;20272;-83
2023/09/29 09:09:24;;;;;;;5.03;2.67;;;;;;;;;;4994314;28;20234;-82
2023/09/29 09:11:54;;;;;;;5.68;2.53;;;;;;;;;;4975308;28;20245;-82
2023/09/29 09:14:21;;;;;;;7.63;2.20;;;;;;;;;;4975349;28;20285;-82
2023/09/29 09:16:50;;;;;;;4.13;1.38;;;;;;;;;;4975202;28;20209;-82
2023/09/29 09:19:17;;;;;;;3.55;1.13;;;;;;;;;;4990245;28;20293;-82
2023/09/29 09:21:46;;;;;;;2.13;0.90;;;;;;;;;;4994625;28;20244;-83
2023/09/29 09:24:20;;;;;;;4.70;1.52;;;;;;;;;;4993909;28;20612;-83
2023/09/29 09:26:48;;;;;;;4.53;1.20;;;;;;;;;;4995023;28;20236;-81
2023/09/29 09:29:17;;;;;;;1.85;0.70;;;;;;;;;;4994881;28;20204;-82
2023/09/29 09:31:50;;;;;;;3.47;1.08;;;;;;;;;;4994248;28;20201;-83
2023/09/29 09:34:18;;;;;;;5.32;2.20;;;;;;;;;;4994541;28;20209;-83
2023/09/29 09:36:45;;;;;;;6.15;2.80;;;;;;;;;;4993169;28;20253;-81
2023/09/29 09:39:12;;;;;;;9.13;3.10;;;;;;;;;;4994026;28;20619;-82
2023/09/29 09:41:41;;;;;;;10.73;3.72;;;;;;;;;;4994195;28;20221;-82
2023/09/29 09:44:09;;;;;;;11.00;4.07;;;;;;;;;;4994138;28;20198;-82
2023/09/29 09:46:40;;;;;;;16.85;4.15;;;;;;;;;;4994058;28;20206;-82
2023/09/29 09:49:13;;;;;;;15.68;4.22;;;;;;;;;;4994078;28;20202;-82
2023/09/29 09:51:42;;;;;;;14.60;4.53;;;;;;;;;;4979387;28;20265;-81
2023/09/29 09:54:11;;;;;;;14.93;4.43;;;;;;;;;;4974394;28;20298;-82
2023/09/29 09:56:46;;;;;;;11.23;4.03;;;;;;;;;;4973999;28;20313;-82
2023/09/29 09:59:13;;;;;;;14.70;3.92;;;;;;;;;;4975067;28;20202;-83
2023/09/29 10:01:42;;;;;;;13.18;4.10;;;;;;;;;;4974358;28;20302;-82
2023/09/29 10:04:12;;;;;;;9.15;4.43;;;;;;;;;;4974128;28;20236;-82
2023/09/29 10:06:43;;;;;;;10.75;4.40;;;;;;;;;;4973065;28;20194;-82
2023/09/29 10:09:11;;;;;;;9.88;3.70;;;;;;;;;;4974473;28;20228;-83
2023/09/29 10:11:42;;;;;;;9.88;4.00;;;;;;;;;;4973684;28;20207;-82
2023/09/29 10:14:10;;;;;;;10.10;3.90;;;;;;;;;;4985557;28;20202;-83
2023/09/29 10:16:38;;;;;;;9.80;3.53;;;;;;;;;;4992523;28;20265;-83
2023/09/29 10:19:11;;;;;;;9.05;3.70;;;;;;;;;;4992958;28;20212;-83
2023/09/29 10:21:42;;;;;;;9.10;3.22;;;;;;;;;;4989424;28;20201;-84
2023/09/29 10:24:12;;;;;;;10.20;3.95;;;;;;;;;;4992375;28;20357;-83
2023/09/29 10:26:45;;;;;;;9.90;3.67;;;;;;;;;;4990070;28;20716;-83
2023/09/29 10:29:19;;;;;;;9.10;3.50;;;;;;;;;;4992620;28;20225;-83
2023/09/29 10:31:48;;;;;;;8.93;3.30;;;;;;;;;;4990456;28;20228;-82
2023/09/29 10:34:21;;;;;;;8.05;3.60;;;;;;;;;;4992307;28;20285;-83
2023/09/29 10:36:55;;;;;;;8.52;3.38;;;;;;;;;;4991208;28;20313;-83
2023/09/29 10:39:27;;;;;;;10.75;4.03;;;;;;;;;;4989926;28;20289;-83
2023/09/29 10:42:04;;;;;;;10.55;3.78;;;;;;;;;;4988995;28;20206;-82
2023/09/29 10:44:31;;;;;;;9.65;3.67;;;;;;;;;;4986876;28;20247;-83
2023/09/29 10:46:59;;;;;;;10.70;3.60;;;;;;;;;;4989398;28;20221;-82
2023/09/29 10:49:35;;;;;;;7.72;3.20;;;;;;;;;;4990167;28;20221;-82
2023/09/29 10:52:02;;;;;;;10.15;3.50;;;;;;;;;;4989410;28;20698;-83
2023/09/29 10:54:30;;;;;;;12.13;3.90;;;;;;;;;;4992021;28;20200;-82
2023/09/29 10:56:57;;;;;;;10.55;3.85;;;;;;;;;;4990496;28;20252;-81
2023/09/29 10:59:24;;;;;;;7.10;3.72;;;;;;;;;;4992084;28;21032;-81
2023/09/29 11:01:51;;;;;;;10.80;3.88;;;;;;;;;;4991734;28;20220;-83
2023/09/29 11:04:19;;;;;;;10.15;3.90;;;;;;;;;;4986253;28;20285;-82
2023/09/29 11:06:49;;;;;;;9.95;4.07;;;;;;;;;;4991237;28;20206;-82
2023/09/29 11:09:19;;;;;;;7.15;3.78;;;;;;;;;;4992253;28;20197;-82
2023/09/29 11:11:46;;;;;;;8.38;3.53;;;;;;;;;;4989040;28;20201;-82
2023/09/29 11:14:14;;;;;;;8.70;3.90;;;;;;;;;;4991336;28;20198;-83
2023/09/29 11:16:41;;;;;;;11.02;4.28;;;;;;;;;;4992018;28;20257;-82
2023/09/29 11:19:10;;;;;;;9.00;4.13;;;;;;;;;;4986436;28;20205;-81
2023/09/29 11:21:38;;;;;;;10.43;4.07;;;;;;;;;;4991423;28;20206;-82
2023/09/29 11:24:08;;;;;;;9.18;3.72;;;;;;;;;;4991333;28;20300;-81
2023/09/29 11:26:36;;;;;;;10.10;4.57;;;;;;;;;;4991544;28;20216;-81
2023/09/29 11:29:04;;;;;;;12.93;5.03;;;;;;;;;;4990938;28;20769;-82
2023/09/29 11:31:31;;;;;;;15.35;5.47;;;;;;;;;;4990993;28;20197;-83
2023/09/29 11:34:00;;;;;;;17.85;5.38;;;;;;;;;;4990590;28;20658;-83
2023/09/29 11:36:29;;;;;;;16.15;5.30;;;;;;;;;;4990917;28;20221;-82
2023/09/29 11:38:56;;;;;;;15.10;5.25;;;;;;;;;;4992121;28;20206;-83
2023/09/29 11:41:25;;;;;;;12.45;4.90;;;;;;;;;;4991900;28;20194;-82
2023/09/29 11:43:52;;;;;;;12.90;5.20;;;;;;;;;;4992326;28;20222;-82
2023/09/29 11:46:20;;;;;;;15.13;4.97;;;;;;;;;;4978690;28;20661;-82
2023/09/29 11:48:47;;;;;;;15.57;5.30;;;;;;;;;;4989973;28;20248;-82
2023/09/29 11:51:14;;;;;;;14.27;5.60;;;;;;;;;;4991919;28;20197;-81
2023/09/29 11:53:42;;;;;;;14.32;4.90;;;;;;;;;;4991599;28;20237;-81
2023/09/29 11:56:09;;;;;;;16.52;5.25;;;;;;;;;;4991561;28;20284;-83
2023/09/29 11:58:39;;;;;;;13.13;5.30;;;;;;;;;;4986077;28;20686;-82
2023/09/29 12:01:08;;;;;;;15.02;5.78;;;;;;;;;;4982513;28;20210;-82
2023/09/29 12:03:35;;;;;;;10.98;4.97;;;;;;;;;;4991794;28;20224;-81
2023/09/29 12:06:03;;;;;;;13.30;5.32;;;;;;;;;;4990996;28;20201;-82
2023/09/29 12:08:30;;;;;;;11.88;5.30;;;;;;;;;;4986639;28;20208;-82
2023/09/29 12:10:58;;;;;;;12.60;5.70;;;;;;;;;;4979346;28;20689;-82
2023/09/29 12:13:26;;;;;;;14.55;5.18;;;;;;;;;;4974056;28;20198;-82
2023/09/29 12:15:55;;;;;;;14.05;5.88;;;;;;;;;;4979718;28;20241;-82
2023/09/29 12:18:22;;;;;;;11.55;5.20;;;;;;;;;;4991101;28;20235;-82
2023/09/29 12:20:52;;;;;;;11.35;5.25;;;;;;;;;;4991346;28;20256;-83
2023/09/29 12:23:19;;;;;;;16.38;5.47;;;;;;;;;;4987320;28;20256;-82
2023/09/29 12:25:47;;;;;;;10.80;5.00;;;;;;;;;;4989847;28;20751;-84
2023/09/29 12:28:14;;;;;;;10.85;4.82;;;;;;;;;;4990911;28;20198;-83
2023/09/29 12:30:44;;;;;;;10.93;5.10;;;;;;;;;;4991061;28;20194;-84
2023/09/29 12:33:12;;;;;;;12.00;5.53;;;;;;;;;;4991221;28;20204;-83
2023/09/29 12:35:40;;;;;;;11.85;5.68;;;;;;;;;;4991233;28;20260;-84
2023/09/29 12:38:07;;;;;;;13.20;5.82;;;;;;;;;;4980732;28;20202;-84
2023/09/29 12:40:34;;;;;;;11.32;5.68;;;;;;;;;;4988755;28;20685;-83
2023/09/29 12:43:02;;;;;;;12.82;5.82;;;;;;;;;;4991625;28;20225;-84
2023/09/29 12:45:31;;;;;;;11.32;5.30;;;;;;;;;;4991467;28;20261;-84
2023/09/29 12:47:59;;;;;;;10.10;5.22;;;;;;;;;;4990841;28;20206;-83
2023/09/29 12:50:28;;;;;;;10.38;4.85;;;;;;;;;;4991145;28;20626;-84
2023/09/29 12:52:55;;;;;;;9.00;4.63;;;;;;;;;;4987491;28;20206;-84
2023/09/29 12:55:22;;;;;;;8.68;4.82;;;;;;;;;;4984948;28;20205;-83
2023/09/29 12:57:52;;;;;;;9.43;4.60;;;;;;;;;;4989054;28;20678;-84
2023/09/29 13:00:19;;;;;;;9.18;4.72;;;;;;;;;;4990462;28;20277;-84
2023/09/29 13:02:49;;;;;;;8.77;4.45;;;;;;;;;;4985723;28;20665;-84
2023/09/29 13:05:16;;;;;;;8.38;4.70;;;;;;;;;;4989554;28;20206;-84
2023/09/29 13:07:47;;;;;;;8.30;4.60;;;;;;;;;;4987434;28;20289;-84
2023/09/29 13:10:15;;;;;;;9.90;4.90;;;;;;;;;;4991701;28;20286;-84
2023/09/29 13:12:42;;;;;;;8.18;4.32;;;;;;;;;;4992727;28;20198;-84
2023/09/29 13:15:11;;;;;;;11.55;5.28;;;;;;;;;;4994362;28;20630;-84
2023/09/29 13:17:38;;;;;;;9.38;5.03;;;;;;;;;;4991333;28;20225;-84
2023/09/29 13:20:06;;;;;;;10.63;5.10;;;;;;;;;;4974915;28;20245;-84
2023/09/29 13:22:33;;;;;;;11.85;5.40;;;;;;;;;;4975120;28;20230;-83
2023/09/29 13:25:04;;;;;;;11.50;5.53;;;;;;;;;;4974885;28;20778;-84
2023/09/29 13:27:32;;;;;;;11.40;5.20;;;;;;;;;;4974618;28;20289;-83
2023/09/29 13:29:59;;;;;;;12.57;5.22;;;;;;;;;;4974164;28;20592;-84
2023/09/29 13:32:26;;;;;;;12.73;5.25;;;;;;;;;;4974803;28;20226;-83
2023/09/29 13:34:53;;;;;;;12.63;5.53;;;;;;;;;;4975191;28;20241;-84
2023/09/29 13:37:21;;;;;;;13.73;5.45;;;;;;;;;;4974542;28;20242;-83
2023/09/29 13:39:48;;;;;;;10.98;4.80;;;;;;;;;;4980427;28;20214;-83
2023/09/29 13:42:19;;;;;;;10.32;4.75;;;;;;;;;;4993803;28;20213;-84
2023/09/29 13:44:46;;;;;;;11.35;5.03;;;;;;;;;;5000410;28;20213;-83
2023/09/29 13:47:13;;;;;;;9.20;4.65;;;;;;;;;;5004305;28;20293;-83
2023/09/29 13:49:40;;;;;;;10.38;4.57;;;;;;;;;;4995241;28;20638;-83
2023/09/29 13:52:07;;;;;;;13.00;5.75;;;;;;;;;;5009742;28;20205;-83
2023/09/29 13:54:35;;;;;;;12.88;5.57;;;;;;;;;;4981654;28;20193;-84
2023/09/29 13:57:03;;;;;;;12.25;5.43;;;;;;;;;;4993901;28;20232;-83
2023/09/29 13:59:31;;;;;;;14.13;5.55;;;;;;;;;;5001479;28;20202;-84
2023/09/29 14:01:59;;;;;;;12.13;5.13;;;;;;;;;;5008361;28;20209;-84
2023/09/29 14:04:27;;;;;;;10.10;5.13;;;;;;;;;;4993501;28;20202;-84
2023/09/29 14:06:54;;;;;;;10.55;4.82;;;;;;;;;;4990392;28;20205;-84
2023/09/29 14:09:22;;;;;;;12.95;5.47;;;;;;;;;;5003725;28;20194;-84
2023/09/29 14:11:49;;;;;;;11.07;5.25;;;;;;;;;;5006509;28;20213;-83
2023/09/29 14:14:17;;;;;;;14.13;5.38;;;;;;;;;;4999449;28;20206;-84
2023/09/29 14:16:45;;;;;;;10.45;5.47;;;;;;;;;;4987229;28;20230;-84
2023/09/29 14:19:13;;;;;;;12.05;5.35;;;;;;;;;;4998418;28;20756;-84
2023/09/29 14:21:40;;;;;;;12.85;5.40;;;;;;;;;;5006276;28;20206;-83
2023/09/29 14:24:08;;;;;;;12.50;5.22;;;;;;;;;;4985455;28;20229;-84
2023/09/29 14:26:35;;;;;;;12.43;5.07;;;;;;;;;;4979355;28;20272;-84
2023/09/29 14:29:02;;;;;;;13.40;5.20;;;;;;;;;;4968663;28;20238;-83
2023/09/29 14:31:29;;;;;;;9.93;4.72;;;;;;;;;;4978186;28;20676;-84
2023/09/29 14:33:58;;;;;;;13.93;5.35;;;;;;;;;;4986062;28;20676;-83
2023/09/29 14:36:25;;;;;;;12.80;5.43;;;;;;;;;;4978024;28;20230;-83
2023/09/29 14:38:53;;;;;;;13.02;5.22;;;;;;;;;;4966417;28;20239;-84
2023/09/29 14:41:21;;;;;;;11.70;5.05;;;;;;;;;;4978702;28;20293;-84